createdAt,value
2019-05-25T00:00:11.982Z,2.80
2019-05-25T00:00:57.721Z,2.50
2019-05-25T00:01:43.376Z,2.60
2019-05-25T00:02:29.571Z,2.40
2019-05-25T00:03:15.572Z,2.20
2019-05-25T00:04:02.057Z,2.80
2019-05-25T00:04:48.511Z,2.10
2019-05-25T00:05:34.894Z,2.83
2019-05-25T00:06:21.439Z,2.23
2019-05-25T00:07:08.007Z,2.20
2019-05-25T00:07:54.177Z,2.70
2019-05-25T00:08:40.805Z,2.60
2019-05-25T00:09:27.107Z,2.50
2019-05-25T00:10:13.942Z,2.13
2019-05-25T00:10:59.926Z,2.50
2019-05-25T00:11:46.187Z,2.50
2019-05-25T00:12:32.487Z,2.27
2019-05-25T00:13:18.762Z,2.50
2019-05-25T00:14:05.436Z,2.27
2019-05-25T00:14:51.882Z,2.60
2019-05-25T00:15:37.984Z,2.43
2019-05-25T00:16:24.708Z,2.57
2019-05-25T00:17:11.218Z,2.70
2019-05-25T00:17:57.850Z,2.80
2019-05-25T00:18:45.333Z,2.80
2019-05-25T00:19:32.707Z,2.30
2019-05-25T00:20:19.058Z,3.03
2019-05-25T00:21:05.374Z,2.77
2019-05-25T00:21:51.710Z,2.73
2019-05-25T00:22:37.610Z,2.43
2019-05-25T00:23:23.545Z,2.50
2019-05-25T00:24:12.602Z,2.50
2019-05-25T00:24:57.582Z,2.80
2019-05-25T00:25:43.235Z,3.00
2019-05-25T00:26:28.936Z,3.07
2019-05-25T00:27:14.662Z,2.90
2019-05-25T00:28:02.417Z,2.77
2019-05-25T00:28:48.699Z,2.40
2019-05-25T00:29:34.859Z,3.17
2019-05-25T00:30:20.891Z,2.77
2019-05-25T00:31:07.112Z,3.13
2019-05-25T00:31:53.444Z,2.80
2019-05-25T00:32:39.858Z,2.80
2019-05-25T00:33:25.892Z,2.60
2019-05-25T00:34:12.014Z,2.80
2019-05-25T00:34:58.414Z,2.80
2019-05-25T00:35:44.848Z,2.23
2019-05-25T00:36:30.947Z,3.03
2019-05-25T00:37:17.134Z,2.57
2019-05-25T00:38:03.565Z,2.90
2019-05-25T00:38:49.770Z,3.10
2019-05-25T00:39:36.437Z,2.90
2019-05-25T00:40:23.073Z,2.87
2019-05-25T00:41:09.710Z,2.70
2019-05-25T00:41:56.043Z,3.10
2019-05-25T00:42:42.090Z,2.97
2019-05-25T00:43:27.981Z,2.77
2019-05-25T00:44:14.512Z,3.60
2019-05-25T00:45:00.859Z,3.30
2019-05-25T00:45:47.406Z,3.20
2019-05-25T00:46:33.737Z,3.03
2019-05-25T00:47:19.746Z,3.00
2019-05-25T00:48:05.990Z,3.33
2019-05-25T00:48:51.875Z,2.93
2019-05-25T00:49:37.839Z,2.87
2019-05-25T00:50:27.446Z,3.07
2019-05-25T00:51:13.610Z,2.83
2019-05-25T00:51:59.480Z,3.30
2019-05-25T00:52:45.520Z,3.50
2019-05-25T00:53:32.025Z,3.60
2019-05-25T00:54:27.390Z,3.43
2019-05-25T00:55:07.286Z,3.23
2019-05-25T00:55:52.931Z,3.43
2019-05-25T00:56:38.862Z,3.80
2019-05-25T00:57:25.253Z,3.33
2019-05-25T00:58:11.123Z,3.00
2019-05-25T00:58:57.049Z,3.27
2019-05-25T00:59:43.171Z,3.40
2019-05-25T01:00:29.648Z,3.73
2019-05-25T01:01:15.903Z,3.50
2019-05-25T01:02:02.574Z,3.80
2019-05-25T01:02:48.462Z,3.13
2019-05-25T01:03:36.227Z,3.60
2019-05-25T01:04:22.619Z,3.70
2019-05-25T01:05:09.596Z,3.57
2019-05-25T01:05:55.928Z,3.53
2019-05-25T01:06:42.411Z,3.57
2019-05-25T01:07:28.687Z,3.67
2019-05-25T01:08:15.173Z,3.87
2019-05-25T01:09:01.710Z,3.57
2019-05-25T01:09:50.838Z,3.63
2019-05-25T01:10:36.976Z,3.57
2019-05-25T01:11:23.484Z,3.87
2019-05-25T01:12:09.612Z,4.17
2019-05-25T01:12:55.728Z,3.93
2019-05-25T01:13:41.736Z,4.30
2019-05-25T01:14:27.656Z,4.27
2019-05-25T01:15:13.990Z,4.33
2019-05-25T01:16:00.072Z,4.13
2019-05-25T01:16:46.284Z,4.10
2019-05-25T01:17:32.401Z,3.83
2019-05-25T01:18:18.468Z,3.87
2019-05-25T01:19:04.722Z,3.57
2019-05-25T01:19:50.631Z,4.07
2019-05-25T01:20:38.796Z,4.00
2019-05-25T01:21:25.472Z,4.07
2019-05-25T01:22:11.542Z,3.87
2019-05-25T01:22:57.582Z,4.07
2019-05-25T01:23:43.497Z,4.40
2019-05-25T01:24:43.375Z,3.50
2019-05-25T01:25:17.825Z,4.23
2019-05-25T01:26:04.211Z,3.83
2019-05-25T01:26:50.324Z,4.50
2019-05-25T01:27:36.193Z,3.50
2019-05-25T01:28:21.952Z,4.20
2019-05-25T01:29:07.731Z,3.97
2019-05-25T01:29:53.770Z,3.93
2019-05-25T01:30:39.982Z,4.47
2019-05-25T01:31:25.855Z,4.40
2019-05-25T01:32:11.948Z,4.03
2019-05-25T01:32:57.899Z,4.17
2019-05-25T01:33:44.063Z,4.37
2019-05-25T01:34:30.203Z,4.33
2019-05-25T01:35:16.856Z,4.10
2019-05-25T01:36:03.123Z,3.97
2019-05-25T01:36:49.236Z,3.90
2019-05-25T01:37:35.412Z,4.10
2019-05-25T01:38:21.938Z,4.03
2019-05-25T01:39:08.327Z,4.20
2019-05-25T01:39:54.727Z,4.20
2019-05-25T01:40:41.243Z,4.70
2019-05-25T01:41:27.733Z,4.10
2019-05-25T01:42:14.233Z,4.27
2019-05-25T01:43:00.239Z,4.20
2019-05-25T01:43:46.605Z,4.30
2019-05-25T01:44:32.559Z,4.53
2019-05-25T01:45:18.628Z,4.27
2019-05-25T01:46:04.479Z,4.77
2019-05-25T01:46:50.219Z,4.70
2019-05-25T01:47:36.509Z,4.90
2019-05-25T01:48:22.351Z,4.80
2019-05-25T01:49:08.034Z,4.87
2019-05-25T01:49:53.862Z,4.60
2019-05-25T01:50:39.611Z,4.70
2019-05-25T01:51:26.019Z,4.62
2019-05-25T01:52:11.907Z,5.30
2019-05-25T01:52:57.544Z,4.50
2019-05-25T01:53:43.243Z,5.13
2019-05-25T01:54:29.420Z,4.77
2019-05-25T01:55:15.108Z,5.20
2019-05-25T01:56:01.108Z,4.83
2019-05-25T01:56:46.749Z,4.47
2019-05-25T01:57:32.455Z,4.97
2019-05-25T01:58:18.192Z,4.97
2019-05-25T01:59:03.943Z,4.20
2019-05-25T01:59:49.729Z,4.63
2019-05-25T02:00:35.490Z,5.00
2019-05-25T02:01:21.853Z,4.73
2019-05-25T02:02:08.134Z,4.73
2019-05-25T02:02:54.000Z,4.33
2019-05-25T02:03:40.112Z,5.13
2019-05-25T02:04:26.266Z,4.87
2019-05-25T02:05:12.197Z,5.13
2019-05-25T02:05:57.999Z,5.60
2019-05-25T02:06:44.219Z,5.23
2019-05-25T02:07:30.467Z,5.90
2019-05-25T02:08:16.511Z,5.50
2019-05-25T02:09:03.625Z,5.90
2019-05-25T02:09:49.626Z,5.90
2019-05-25T02:10:35.300Z,5.63
2019-05-25T02:11:21.001Z,5.73
2019-05-25T02:12:06.637Z,5.80
2019-05-25T02:12:52.311Z,5.90
2019-05-25T02:13:38.171Z,5.63
2019-05-25T02:14:24.337Z,5.60
2019-05-25T02:15:10.615Z,6.30
2019-05-25T02:15:56.697Z,6.00
2019-05-25T02:16:42.987Z,5.73
2019-05-25T02:17:29.340Z,6.10
2019-05-25T02:18:15.020Z,5.60
2019-05-25T02:19:00.740Z,5.53
2019-05-25T02:19:46.445Z,5.07
2019-05-25T02:20:32.266Z,5.80
2019-05-25T02:21:19.541Z,5.27
2019-05-25T02:22:06.073Z,5.83
2019-05-25T02:22:52.623Z,6.30
2019-05-25T02:23:38.831Z,6.13
2019-05-25T02:24:24.999Z,6.47
2019-05-25T02:25:19.051Z,6.00
2019-05-25T02:25:59.407Z,6.07
2019-05-25T02:26:45.419Z,6.00
2019-05-25T02:27:31.898Z,5.50
2019-05-25T02:28:17.841Z,6.47
2019-05-25T02:29:03.974Z,5.50
2019-05-25T02:29:50.264Z,5.90
2019-05-25T02:30:36.680Z,6.07
2019-05-25T02:31:23.104Z,5.83
2019-05-25T02:32:09.097Z,6.27
2019-05-25T02:32:55.698Z,6.47
2019-05-25T02:33:41.838Z,5.53
2019-05-25T02:34:28.391Z,5.97
2019-05-25T02:35:23.525Z,6.35
2019-05-25T02:36:09.662Z,6.78
2019-05-25T02:36:55.727Z,5.40
2019-05-25T02:37:42.087Z,6.23
2019-05-25T02:38:28.094Z,7.50
2019-05-25T02:39:14.399Z,6.50
2019-05-25T02:40:00.322Z,6.73
2019-05-25T02:40:46.839Z,6.30
2019-05-25T02:41:35.251Z,6.80
2019-05-25T02:42:21.829Z,5.87
2019-05-25T02:43:09.907Z,6.27
2019-05-25T02:43:56.253Z,7.13
2019-05-25T02:44:42.405Z,6.83
2019-05-25T02:45:28.599Z,6.83
2019-05-25T02:46:15.134Z,7.08
2019-05-25T02:47:01.431Z,6.50
2019-05-25T02:47:47.818Z,6.13
2019-05-25T02:48:34.179Z,6.50
2019-05-25T02:49:20.928Z,6.25
2019-05-25T02:50:07.379Z,6.35
2019-05-25T02:50:53.475Z,6.55
2019-05-25T02:51:39.736Z,7.17
2019-05-25T02:52:25.788Z,7.20
2019-05-25T02:53:12.491Z,7.35
2019-05-25T02:53:59.374Z,6.40
2019-05-25T02:54:45.804Z,6.77
2019-05-25T02:55:34.802Z,7.00
2019-05-25T02:56:20.180Z,7.10
2019-05-25T02:57:08.164Z,6.80
2019-05-25T02:57:54.258Z,7.03
2019-05-25T02:58:40.497Z,7.80
2019-05-25T02:59:26.795Z,6.87
2019-05-25T03:00:15.544Z,6.87
2019-05-25T03:01:01.606Z,6.95
2019-05-25T03:01:49.083Z,6.80
2019-05-25T03:02:35.539Z,7.12
2019-05-25T03:03:21.999Z,7.47
2019-05-25T03:04:07.963Z,7.20
2019-05-25T03:04:54.263Z,7.33
2019-05-25T03:05:40.802Z,7.17
2019-05-25T03:06:27.931Z,7.85
2019-05-25T03:07:14.692Z,7.10
2019-05-25T03:08:01.887Z,6.90
2019-05-25T03:08:48.539Z,7.27
2019-05-25T03:09:37.413Z,7.43
2019-05-25T03:10:24.226Z,8.00
2019-05-25T03:11:10.872Z,7.20
2019-05-25T03:11:58.763Z,7.45
2019-05-25T03:12:45.159Z,7.72
2019-05-25T03:13:31.833Z,7.35
2019-05-25T03:14:17.925Z,7.20
2019-05-25T03:15:05.199Z,8.15
2019-05-25T03:15:51.586Z,7.78
2019-05-25T03:16:38.225Z,8.05
2019-05-25T03:17:24.885Z,7.37
2019-05-25T03:18:12.625Z,8.47
2019-05-25T03:18:58.882Z,8.35
2019-05-25T03:19:45.455Z,8.43
2019-05-25T03:20:31.821Z,7.78
2019-05-25T03:21:19.579Z,7.47
2019-05-25T03:22:05.972Z,8.05
2019-05-25T03:22:52.114Z,7.87
2019-05-25T03:23:38.269Z,7.67
2019-05-25T03:24:25.579Z,7.50
2019-05-25T03:25:12.215Z,7.70
2019-05-25T03:26:10.752Z,8.03
2019-05-25T03:26:56.646Z,7.75
2019-05-25T03:27:42.741Z,8.10
2019-05-25T03:28:28.942Z,8.53
2019-05-25T03:29:15.313Z,9.28
2019-05-25T03:30:01.341Z,8.10
2019-05-25T03:30:48.131Z,8.35
2019-05-25T03:31:34.419Z,9.10
2019-05-25T03:32:21.058Z,8.78
2019-05-25T03:33:07.284Z,9.15
2019-05-25T03:33:53.853Z,8.65
2019-05-25T03:34:39.940Z,8.73
2019-05-25T03:35:26.331Z,9.00
2019-05-25T03:36:12.538Z,8.60
2019-05-25T03:36:58.554Z,9.20
2019-05-25T03:37:44.623Z,8.35
2019-05-25T03:38:30.854Z,8.98
2019-05-25T03:39:18.522Z,9.65
2019-05-25T03:40:05.196Z,9.60
2019-05-25T03:40:51.596Z,8.75
2019-05-25T03:41:38.623Z,9.40
2019-05-25T03:42:24.561Z,9.40
2019-05-25T03:43:11.169Z,10.60
2019-05-25T03:43:58.953Z,9.75
2019-05-25T03:44:46.636Z,8.70
2019-05-25T03:45:39.215Z,8.78
2019-05-25T03:46:25.461Z,9.95
2019-05-25T03:47:11.474Z,9.93
2019-05-25T03:47:58.608Z,10.37
2019-05-25T03:48:44.887Z,9.85
2019-05-25T03:49:30.875Z,8.97
2019-05-25T03:50:17.571Z,9.48
2019-05-25T03:51:03.836Z,10.30
2019-05-25T03:51:49.890Z,10.10
2019-05-25T03:52:36.327Z,10.38
2019-05-25T03:53:22.745Z,10.03
2019-05-25T03:54:08.827Z,10.58
2019-05-25T03:54:54.912Z,10.88
2019-05-25T03:55:41.104Z,11.03
2019-05-25T03:56:27.702Z,10.55
2019-05-25T03:57:13.684Z,11.27
2019-05-25T03:57:59.811Z,9.10
2019-05-25T03:58:45.771Z,9.50
2019-05-25T03:59:32.217Z,9.38
2019-05-25T04:00:29.908Z,9.55
2019-05-25T04:01:16.029Z,8.65
2019-05-25T04:02:02.221Z,9.38
2019-05-25T04:02:48.430Z,9.80
2019-05-25T04:03:34.823Z,10.80
2019-05-25T04:04:20.843Z,10.70
2019-05-25T04:05:07.079Z,9.40
2019-05-25T04:05:52.979Z,10.85
2019-05-25T04:06:39.395Z,9.98
2019-05-25T04:07:25.895Z,10.30
2019-05-25T04:08:12.535Z,9.83
2019-05-25T04:09:01.443Z,9.65
2019-05-25T04:09:49.138Z,10.15
2019-05-25T04:10:38.757Z,10.78
2019-05-25T04:11:25.089Z,10.93
2019-05-25T04:12:11.400Z,11.08
2019-05-25T04:12:57.657Z,11.12
2019-05-25T04:13:44.412Z,11.40
2019-05-25T04:14:31.350Z,11.53
2019-05-25T04:15:18.749Z,11.35
2019-05-25T04:16:05.187Z,11.30
2019-05-25T04:16:51.648Z,10.13
2019-05-25T04:17:38.285Z,11.70
2019-05-25T04:18:26.810Z,11.45
2019-05-25T04:19:13.859Z,11.45
2019-05-25T04:20:02.677Z,11.37
2019-05-25T04:20:48.625Z,10.78
2019-05-25T04:21:36.141Z,10.70
2019-05-25T04:22:22.341Z,11.48
2019-05-25T04:23:10.728Z,11.27
2019-05-25T04:23:57.092Z,11.47
2019-05-25T04:24:44.394Z,11.63
2019-05-25T04:25:31.111Z,12.37
2019-05-25T04:26:22.607Z,11.85
2019-05-25T04:27:06.065Z,11.57
2019-05-25T04:27:52.365Z,11.45
2019-05-25T04:28:41.674Z,10.83
2019-05-25T04:29:30.542Z,11.63
2019-05-25T04:30:18.012Z,11.90
2019-05-25T04:31:05.418Z,12.03
2019-05-25T04:31:51.995Z,12.80
2019-05-25T04:32:38.239Z,12.37
2019-05-25T04:33:24.807Z,11.47
2019-05-25T04:34:11.524Z,11.50
2019-05-25T04:34:59.916Z,10.30
2019-05-25T04:35:46.723Z,13.07
2019-05-25T04:36:33.080Z,11.70
2019-05-25T04:37:19.337Z,12.23
2019-05-25T04:38:05.968Z,12.37
2019-05-25T04:38:53.198Z,10.75
2019-05-25T04:39:39.664Z,11.55
2019-05-25T04:40:28.847Z,11.53
2019-05-25T04:41:18.231Z,11.37
2019-05-25T04:42:04.371Z,11.97
2019-05-25T04:42:50.920Z,11.60
2019-05-25T04:43:37.067Z,12.07
2019-05-25T04:44:23.500Z,11.25
2019-05-25T04:45:10.203Z,11.33
2019-05-25T04:45:56.787Z,11.08
2019-05-25T04:46:43.100Z,11.68
2019-05-25T04:47:29.643Z,11.97
2019-05-25T04:48:16.097Z,11.38
2019-05-25T04:49:02.716Z,10.75
2019-05-25T04:49:49.374Z,12.03
2019-05-25T04:50:35.468Z,10.50
2019-05-25T04:51:22.570Z,11.53
2019-05-25T04:52:09.935Z,10.98
2019-05-25T04:52:56.271Z,12.40
2019-05-25T04:53:42.819Z,12.68
2019-05-25T04:54:29.130Z,11.50
2019-05-25T04:55:21.828Z,11.00
2019-05-25T04:56:08.312Z,11.22
2019-05-25T04:56:54.745Z,11.43
2019-05-25T04:57:40.803Z,12.47
2019-05-25T04:58:26.919Z,13.13
2019-05-25T04:59:13.707Z,11.80
2019-05-25T05:00:00.017Z,12.70
2019-05-25T05:00:46.141Z,13.13
2019-05-25T05:01:36.295Z,13.50
2019-05-25T05:02:22.395Z,13.25
2019-05-25T05:03:08.636Z,12.45
2019-05-25T05:03:54.848Z,12.97
2019-05-25T05:04:40.949Z,13.83
2019-05-25T05:05:29.381Z,13.30
2019-05-25T05:06:15.482Z,13.23
2019-05-25T05:07:02.126Z,13.03
2019-05-25T05:07:48.675Z,12.33
2019-05-25T05:08:35.712Z,13.63
2019-05-25T05:09:22.073Z,12.10
2019-05-25T05:10:08.674Z,11.95
2019-05-25T05:10:54.849Z,12.47
2019-05-25T05:11:40.997Z,13.03
2019-05-25T05:12:28.048Z,12.73
2019-05-25T05:13:14.223Z,12.67
2019-05-25T05:14:00.632Z,13.37
2019-05-25T05:14:47.029Z,12.70
2019-05-25T05:15:33.044Z,11.93
2019-05-25T05:16:19.495Z,11.60
2019-05-25T05:17:06.167Z,11.60
2019-05-25T05:17:53.235Z,12.10
2019-05-25T05:18:39.547Z,11.47
2019-05-25T05:19:25.922Z,12.53
2019-05-25T05:20:12.242Z,10.83
2019-05-25T05:20:58.293Z,11.57
2019-05-25T05:21:44.488Z,12.33
2019-05-25T05:22:30.650Z,10.67
2019-05-25T05:23:16.307Z,11.40
2019-05-25T05:24:01.997Z,11.27
2019-05-25T05:24:47.785Z,10.60
2019-05-25T05:25:33.588Z,10.60
2019-05-25T05:26:19.409Z,10.50
2019-05-25T05:27:05.395Z,10.57
2019-05-25T05:27:51.516Z,10.07
2019-05-25T05:28:38.098Z,11.13
2019-05-25T05:29:24.285Z,10.83
2019-05-25T05:30:10.923Z,10.37
2019-05-25T05:30:56.921Z,10.53
2019-05-25T05:31:43.218Z,9.50
2019-05-25T05:32:31.137Z,9.70
2019-05-25T05:33:17.181Z,9.30
2019-05-25T05:34:04.534Z,10.40
2019-05-25T05:34:53.066Z,9.13
2019-05-25T05:35:39.412Z,9.57
2019-05-25T05:36:27.161Z,9.00
2019-05-25T05:37:13.350Z,10.23
2019-05-25T05:38:02.335Z,9.53
2019-05-25T05:38:49.338Z,10.07
2019-05-25T05:39:37.408Z,9.77
2019-05-25T05:40:23.588Z,8.87
2019-05-25T05:41:10.903Z,9.50
2019-05-25T05:41:59.562Z,8.40
2019-05-25T05:42:48.473Z,9.63
2019-05-25T05:43:37.038Z,9.83
2019-05-25T05:44:25.653Z,10.87
2019-05-25T05:45:11.778Z,10.17
2019-05-25T05:45:59.475Z,9.97
2019-05-25T05:46:48.082Z,9.83
2019-05-25T05:47:35.480Z,9.07
2019-05-25T05:48:24.955Z,8.90
2019-05-25T05:49:11.353Z,8.77
2019-05-25T05:50:00.418Z,8.93
2019-05-25T05:50:48.181Z,9.30
2019-05-25T05:51:35.062Z,9.70
2019-05-25T05:52:23.604Z,9.37
2019-05-25T05:53:09.846Z,9.20
2019-05-25T05:53:56.275Z,9.23
2019-05-25T05:54:44.939Z,9.63
2019-05-25T05:55:31.550Z,9.30
2019-05-25T05:56:17.427Z,9.17
2019-05-25T05:57:12.163Z,9.40
2019-05-25T05:57:51.058Z,9.20
2019-05-25T05:58:37.125Z,8.83
2019-05-25T05:59:23.029Z,9.00
2019-05-25T06:00:12.103Z,8.63
2019-05-25T06:00:58.045Z,8.70
2019-05-25T06:01:43.807Z,8.80
2019-05-25T06:02:30.264Z,8.87
2019-05-25T06:03:16.744Z,8.83
2019-05-25T06:04:03.456Z,9.20
2019-05-25T06:04:50.321Z,8.50
2019-05-25T06:05:36.711Z,9.07
2019-05-25T06:06:23.154Z,9.50
2019-05-25T06:07:47.137Z,10.05
2019-05-25T06:08:33.100Z,9.80
2019-05-25T06:09:19.089Z,9.03
2019-05-25T06:10:07.101Z,10.27
2019-05-25T06:10:52.847Z,9.20
2019-05-25T06:11:39.309Z,9.47
2019-05-25T06:12:26.345Z,9.53
2019-05-25T06:13:12.504Z,8.83
2019-05-25T06:13:58.659Z,8.77
2019-05-25T06:14:44.686Z,9.43
2019-05-25T06:15:30.611Z,9.87
2019-05-25T06:16:19.628Z,9.30
2019-05-25T06:17:05.580Z,9.33
2019-05-25T06:17:51.602Z,9.10
2019-05-25T06:18:38.155Z,8.83
2019-05-25T06:19:24.279Z,8.73
2019-05-25T06:20:10.772Z,7.97
2019-05-25T06:20:56.834Z,8.33
2019-05-25T06:21:45.655Z,8.47
2019-05-25T06:22:31.911Z,8.00
2019-05-25T06:23:17.788Z,8.53
2019-05-25T06:24:04.175Z,7.97
2019-05-25T06:24:50.648Z,8.20
2019-05-25T06:25:37.299Z,7.80
2019-05-25T06:26:23.980Z,8.33
2019-05-25T06:27:18.902Z,7.58
2019-05-25T06:27:59.876Z,7.60
2019-05-25T06:28:45.962Z,8.33
2019-05-25T06:29:35.754Z,8.37
2019-05-25T06:30:22.204Z,8.10
2019-05-25T06:31:09.257Z,8.93
2019-05-25T06:32:05.614Z,8.33
2019-05-25T06:32:52.100Z,8.10
2019-05-25T06:33:38.732Z,7.80
2019-05-25T06:34:25.773Z,8.40
2019-05-25T06:35:12.691Z,8.03
2019-05-25T06:36:00.234Z,7.40
2019-05-25T06:36:46.463Z,7.40
2019-05-25T06:37:32.630Z,7.73
2019-05-25T06:38:18.980Z,8.30
2019-05-25T06:39:06.688Z,7.07
2019-05-25T06:39:52.995Z,7.20
2019-05-25T06:40:41.196Z,7.07
2019-05-25T06:41:31.079Z,6.90
2019-05-25T06:42:17.412Z,7.00
2019-05-25T06:43:03.398Z,6.60
2019-05-25T06:43:49.626Z,6.90
2019-05-25T06:44:35.588Z,6.77
2019-05-25T06:45:25.752Z,6.50
2019-05-25T06:46:12.110Z,7.13
2019-05-25T06:46:58.298Z,7.43
2019-05-25T06:47:48.438Z,6.80
2019-05-25T06:48:34.590Z,6.83
2019-05-25T06:49:20.835Z,7.10
2019-05-25T06:50:11.876Z,6.50
2019-05-25T06:50:57.597Z,6.70
2019-05-25T06:51:44.094Z,6.80
2019-05-25T06:52:30.356Z,6.73
2019-05-25T06:53:25.872Z,6.83
2019-05-25T06:54:12.776Z,6.77
2019-05-25T06:55:11.731Z,7.27
2019-05-25T06:55:58.060Z,6.97
2019-05-25T06:56:44.352Z,6.87
2019-05-25T06:57:42.608Z,7.53
2019-05-25T06:58:20.877Z,6.60
2019-05-25T06:59:07.195Z,7.07
2019-05-25T06:59:53.279Z,7.30
2019-05-25T07:00:39.383Z,7.27
2019-05-25T07:01:30.796Z,6.63
2019-05-25T07:02:17.893Z,7.50
2019-05-25T07:03:04.060Z,7.53
2019-05-25T07:03:50.024Z,8.00
2019-05-25T07:04:36.016Z,8.67
2019-05-25T07:05:23.251Z,8.87
2019-05-25T07:06:09.714Z,8.90
2019-05-25T07:06:56.964Z,8.93
2019-05-25T07:07:47.288Z,7.27
2019-05-25T07:08:34.249Z,8.90
2019-05-25T07:09:20.688Z,10.37
2019-05-25T07:10:10.201Z,10.17
2019-05-25T07:10:56.903Z,10.47
2019-05-25T07:11:42.959Z,10.57
2019-05-25T07:12:30.009Z,10.67
2019-05-25T07:13:16.295Z,10.23
2019-05-25T07:14:02.262Z,12.53
2019-05-25T07:14:48.546Z,12.03
2019-05-25T07:15:34.821Z,12.50
2019-05-25T07:16:20.619Z,13.67
2019-05-25T07:17:06.833Z,12.70
2019-05-25T07:17:53.400Z,13.30
2019-05-25T07:18:39.852Z,13.47
2019-05-25T07:19:26.650Z,13.20
2019-05-25T07:20:13.053Z,15.03
2019-05-25T07:20:59.512Z,13.43
2019-05-25T07:21:46.069Z,13.73
2019-05-25T07:22:32.516Z,13.90
2019-05-25T07:23:18.983Z,13.23
2019-05-25T07:24:06.083Z,12.50
2019-05-25T07:24:52.449Z,14.20
2019-05-25T07:25:38.419Z,13.60
2019-05-25T07:26:24.891Z,14.00
2019-05-25T07:27:11.506Z,14.33
2019-05-25T07:28:01.608Z,12.43
2019-05-25T07:28:50.826Z,12.63
2019-05-25T07:29:36.884Z,12.23
2019-05-25T07:30:23.819Z,12.33
2019-05-25T07:31:11.932Z,12.33
2019-05-25T07:31:57.923Z,13.43
2019-05-25T07:32:44.545Z,14.87
2019-05-25T07:33:31.403Z,16.67
2019-05-25T07:34:18.526Z,16.10
2019-05-25T07:35:04.773Z,14.87
2019-05-25T07:35:51.364Z,14.80
2019-05-25T07:36:38.204Z,14.17
2019-05-25T07:37:24.632Z,14.17
2019-05-25T07:38:10.777Z,14.40
2019-05-25T07:38:56.650Z,14.23
2019-05-25T07:39:42.896Z,16.17
2019-05-25T07:40:29.119Z,15.63
2019-05-25T07:41:18.218Z,15.30
2019-05-25T07:42:04.776Z,18.03
2019-05-25T07:43:07.386Z,18.97
2019-05-25T07:43:53.371Z,20.40
2019-05-25T07:44:42.403Z,22.50
2019-05-25T07:45:28.379Z,24.30
2019-05-25T07:46:17.084Z,22.93
2019-05-25T07:47:05.481Z,22.70
2019-05-25T07:47:53.409Z,22.77
2019-05-25T07:48:40.844Z,21.70
2019-05-25T07:49:27.715Z,21.60
2019-05-25T07:50:18.070Z,21.27
2019-05-25T07:51:10.102Z,21.40
2019-05-25T07:52:04.035Z,22.50
2019-05-25T07:52:51.515Z,23.00
2019-05-25T07:53:40.106Z,21.80
2019-05-25T07:54:31.401Z,22.80
2019-05-25T07:55:17.726Z,22.83
2019-05-25T07:56:03.929Z,22.53
2019-05-25T07:56:50.004Z,24.03
2019-05-25T07:57:36.289Z,23.17
2019-05-25T07:58:23.062Z,24.30
2019-05-25T07:59:12.553Z,23.53
2019-05-25T07:59:59.382Z,22.73
2019-05-25T08:00:54.447Z,22.70
2019-05-25T08:01:44.226Z,23.10
2019-05-25T08:02:31.665Z,23.23
2019-05-25T08:03:25.453Z,22.83
2019-05-25T08:04:11.673Z,21.80
2019-05-25T08:04:58.000Z,22.03
2019-05-25T08:05:47.575Z,20.67
2019-05-25T08:06:36.923Z,20.77
2019-05-25T08:07:23.811Z,19.63
2019-05-25T08:08:13.333Z,18.67
2019-05-25T08:09:05.985Z,18.57
2019-05-25T08:09:54.723Z,18.07
2019-05-25T08:10:46.201Z,19.80
2019-05-25T08:11:35.925Z,19.20
2019-05-25T08:12:27.413Z,16.93
2019-05-25T08:13:13.515Z,16.30
2019-05-25T08:14:04.989Z,16.73
2019-05-25T08:14:51.062Z,16.07
2019-05-25T08:15:36.807Z,14.80
2019-05-25T08:16:22.835Z,13.73
2019-05-25T08:17:08.964Z,13.23
2019-05-25T08:17:55.523Z,11.80
2019-05-25T08:18:45.995Z,11.83
2019-05-25T08:19:32.276Z,12.00
2019-05-25T08:20:18.163Z,12.37
2019-05-25T08:21:04.278Z,12.60
2019-05-25T08:21:50.575Z,13.80
2019-05-25T08:22:37.100Z,12.67
2019-05-25T08:23:23.769Z,13.20
2019-05-25T08:24:10.455Z,13.77
2019-05-25T08:24:57.378Z,14.03
2019-05-25T08:25:44.345Z,13.83
2019-05-25T08:26:30.935Z,14.40
2019-05-25T08:27:18.063Z,13.33
2019-05-25T08:28:05.022Z,21.10
2019-05-25T08:28:55.895Z,20.43
2019-05-25T08:29:44.376Z,18.63
2019-05-25T08:30:33.263Z,18.30
2019-05-25T08:31:21.479Z,14.30
2019-05-25T08:32:07.748Z,12.03
2019-05-25T08:32:53.870Z,12.10
2019-05-25T08:33:43.133Z,13.10
2019-05-25T08:34:31.669Z,11.97
2019-05-25T08:35:18.720Z,12.00
2019-05-25T08:36:05.495Z,11.73
2019-05-25T08:36:52.623Z,11.40
2019-05-25T08:37:39.432Z,12.43
2019-05-25T08:38:28.457Z,13.40
2019-05-25T08:39:16.807Z,11.37
2019-05-25T08:40:04.309Z,12.60
2019-05-25T08:40:54.775Z,13.10
2019-05-25T08:41:41.022Z,13.60
2019-05-25T08:42:27.038Z,12.60
2019-05-25T08:43:13.686Z,12.13
2019-05-25T08:44:04.388Z,11.50
2019-05-25T08:44:50.053Z,12.43
2019-05-25T08:45:36.443Z,13.50
2019-05-25T08:46:22.990Z,11.97
2019-05-25T08:47:08.864Z,14.83
2019-05-25T08:48:01.555Z,12.77
2019-05-25T08:48:48.770Z,12.17
2019-05-25T08:49:35.812Z,13.70
2019-05-25T08:50:35.393Z,12.70
2019-05-25T08:51:11.139Z,12.10
2019-05-25T08:51:57.372Z,12.33
2019-05-25T08:52:45.790Z,10.63
2019-05-25T08:53:41.100Z,10.97
2019-05-25T08:54:20.364Z,11.43
2019-05-25T08:55:07.980Z,10.73
2019-05-25T08:55:53.974Z,9.83
2019-05-25T08:56:39.926Z,10.07
2019-05-25T08:57:26.080Z,9.73
2019-05-25T08:58:13.834Z,10.63
2019-05-25T08:59:04.190Z,10.60
2019-05-25T08:59:50.134Z,11.50
2019-05-25T09:00:47.435Z,10.80
2019-05-25T09:01:34.452Z,11.60
2019-05-25T09:02:21.556Z,10.40
2019-05-25T09:03:08.008Z,10.40
2019-05-25T09:03:53.935Z,10.70
2019-05-25T09:04:40.172Z,11.77
2019-05-25T09:05:30.182Z,11.23
2019-05-25T09:06:17.686Z,9.95
2019-05-25T09:07:04.027Z,10.05
2019-05-25T09:07:49.865Z,9.53
2019-05-25T09:08:36.100Z,10.10
2019-05-25T09:09:22.508Z,9.50
2019-05-25T09:10:09.790Z,10.08
2019-05-25T09:10:56.167Z,11.20
2019-05-25T09:11:42.576Z,9.45
2019-05-25T09:12:29.044Z,9.73
2019-05-25T09:13:15.484Z,11.65
2019-05-25T09:14:01.775Z,10.25
2019-05-25T09:14:47.833Z,11.43
2019-05-25T09:15:35.355Z,10.78
2019-05-25T09:16:21.658Z,12.20
2019-05-25T09:17:07.918Z,12.37
2019-05-25T09:17:54.023Z,12.85
2019-05-25T09:18:40.079Z,12.05
2019-05-25T09:19:26.328Z,11.28
2019-05-25T09:20:12.878Z,11.80
2019-05-25T09:21:01.876Z,10.78
2019-05-25T09:22:01.469Z,10.63
2019-05-25T09:22:35.784Z,10.65
2019-05-25T09:23:21.823Z,9.28
2019-05-25T09:24:07.961Z,9.50
2019-05-25T09:24:53.596Z,9.28
2019-05-25T09:25:39.483Z,9.18
2019-05-25T09:26:25.489Z,9.13
2019-05-25T09:27:11.150Z,9.03
2019-05-25T09:27:56.863Z,8.23
2019-05-25T09:28:42.659Z,8.10
2019-05-25T09:29:28.969Z,7.65
2019-05-25T09:30:14.961Z,8.35
2019-05-25T09:31:01.477Z,8.08
2019-05-25T09:31:48.253Z,7.65
2019-05-25T09:32:34.576Z,7.55
2019-05-25T09:33:23.520Z,7.28
2019-05-25T09:34:09.555Z,7.45
2019-05-25T09:34:55.596Z,9.05
2019-05-25T09:35:41.790Z,8.85
2019-05-25T09:36:27.925Z,8.35
2019-05-25T09:37:14.100Z,8.08
2019-05-25T09:38:00.200Z,8.00
2019-05-25T09:38:46.948Z,8.73
2019-05-25T09:39:33.032Z,8.95
2019-05-25T09:40:19.072Z,7.58
2019-05-25T09:41:05.170Z,7.65
2019-05-25T09:41:51.000Z,7.80
2019-05-25T09:42:38.421Z,7.65
2019-05-25T09:43:25.060Z,7.15
2019-05-25T09:44:11.100Z,7.75
2019-05-25T09:44:57.623Z,7.35
2019-05-25T09:45:49.532Z,7.55
2019-05-25T09:46:35.895Z,7.20
2019-05-25T09:47:26.777Z,7.75
2019-05-25T09:48:14.733Z,7.35
2019-05-25T09:49:01.450Z,7.08
2019-05-25T09:49:50.960Z,8.18
2019-05-25T09:50:38.006Z,7.50
2019-05-25T09:51:24.719Z,8.65
2019-05-25T09:52:10.921Z,7.97
2019-05-25T09:52:58.823Z,7.90
2019-05-25T09:53:44.900Z,7.30
2019-05-25T09:54:31.453Z,6.62
2019-05-25T09:55:18.188Z,6.17
2019-05-25T09:56:08.541Z,6.28
2019-05-25T09:56:55.598Z,8.58
2019-05-25T09:57:42.090Z,8.03
2019-05-25T09:58:30.542Z,7.50
2019-05-25T09:59:20.124Z,6.70
2019-05-25T10:00:09.145Z,7.55
2019-05-25T10:00:58.172Z,7.03
2019-05-25T10:01:44.836Z,7.03
2019-05-25T10:02:31.531Z,6.67
2019-05-25T10:03:22.357Z,6.17
2019-05-25T10:04:08.864Z,6.78
2019-05-25T10:04:54.887Z,6.55
2019-05-25T10:05:41.896Z,6.85
2019-05-25T10:06:28.963Z,6.22
2019-05-25T10:07:15.206Z,6.00
2019-05-25T10:08:01.344Z,5.85
2019-05-25T10:08:47.781Z,6.10
2019-05-25T10:09:34.520Z,5.10
2019-05-25T10:10:22.366Z,6.40
2019-05-25T10:11:08.642Z,5.72
2019-05-25T10:11:55.045Z,5.45
2019-05-25T10:12:41.477Z,4.90
2019-05-25T10:13:27.681Z,4.62
2019-05-25T10:14:13.816Z,4.78
2019-05-25T10:14:59.864Z,4.40
2019-05-25T10:15:45.989Z,4.22
2019-05-25T10:16:32.127Z,4.08
2019-05-25T10:17:17.882Z,5.75